Time;durP1;ratioP1;P1;durP2;ratioP2;P2;SDS_P1;SDS_P2;PMS_P1;PMS_P2;Temp;Humidity;BMP_temperature;BMP_pressure;BME280_temperature;BME280_humidity;BME280_pressure;Samples;Min_cycle;Max_cycle;Signal;HPM_P1;HPM_P2
2021/04/21 00:00:18;;;;;;;24.88;16.33;;;4.60;99.90;;;;;;4755744;30;20142;-78
2021/04/21 00:02:51;;;;;;;28.92;15.65;;;4.60;99.90;;;;;;4785863;30;20137;-78
2021/04/21 00:05:25;;;;;;;26.83;15.82;;;4.60;99.90;;;;;;4770582;30;20053;-78
2021/04/21 00:07:57;;;;;;;25.92;15.73;;;4.60;99.90;;;;;;4755334;30;20076;-78
2021/04/21 00:10:29;;;;;;;23.33;14.63;;;4.60;99.90;;;;;;4755563;30;20066;-77
2021/04/21 00:13:01;;;;;;;23.30;15.38;;;4.50;99.90;;;;;;4755353;30;20048;-78
2021/04/21 00:15:32;;;;;;;22.17;13.95;;;4.50;99.90;;;;;;4755619;30;20408;-78
2021/04/21 00:18:06;;;;;;;23.80;14.98;;;4.50;99.90;;;;;;4770050;30;20118;-78
2021/04/21 00:20:37;;;;;;;20.90;13.18;;;4.50;99.90;;;;;;4755319;30;20052;-78
2021/04/21 00:23:08;;;;;;;21.63;14.43;;;4.50;99.90;;;;;;4769415;30;20071;-78
2021/04/21 00:25:40;;;;;;;22.60;13.70;;;4.40;99.90;;;;;;4769529;30;20055;-77
2021/04/21 00:28:13;;;;;;;21.60;13.48;;;4.40;99.90;;;;;;4770049;30;20058;-78
2021/04/21 00:30:44;;;;;;;21.40;13.63;;;4.30;99.90;;;;;;4770220;30;20059;-78
2021/04/21 00:33:17;;;;;;;22.33;14.23;;;4.20;99.90;;;;;;4769897;30;20048;-78
2021/04/21 00:35:51;;;;;;;23.67;13.90;;;4.10;99.90;;;;;;4755298;30;20051;-78
2021/04/21 00:38:23;;;;;;;24.40;14.25;;;4.10;99.90;;;;;;4768819;30;20142;-78
2021/04/21 00:41:32;;;;;;;27.55;14.27;;;4.10;99.90;;;;;;4770135;30;20047;-78
2021/04/21 00:44:30;;;;;;;22.88;14.20;;;4.10;99.90;;;;;;4754918;30;20055;-78
2021/04/21 00:47:05;;;;;;;23.20;14.60;;;4.10;99.90;;;;;;4755175;30;20070;-78
2021/04/21 00:49:50;;;;;;;23.75;15.07;;;4.00;99.90;;;;;;4754398;29;20435;-78
2021/04/21 00:52:34;;;;;;;23.98;14.95;;;4.00;99.90;;;;;;4754839;30;20130;-77
2021/04/21 00:55:38;;;;;;;21.95;14.65;;;4.00;99.90;;;;;;4769184;30;20051;-78
2021/04/21 00:58:35;;;;;;;25.73;14.75;;;3.90;99.90;;;;;;4768457;30;20054;-78
2021/04/21 01:01:10;;;;;;;26.10;15.43;;;3.90;99.90;;;;;;4754134;30;20058;-78
2021/04/21 01:03:43;;;;;;;23.83;15.05;;;3.90;99.90;;;;;;4768639;30;20044;-78
2021/04/21 01:06:17;;;;;;;;;;;3.80;99.90;;;;;;4768798;30;20043;-78
2021/04/21 01:08:56;;;;;;;22.75;14.50;;;3.80;99.90;;;;;;4753766;30;20165;-78
2021/04/21 01:11:31;;;;;;;23.90;14.77;;;3.80;99.90;;;;;;4768394;30;20043;-78
2021/04/21 01:14:17;;;;;;;25.20;14.88;;;3.80;99.90;;;;;;4768343;30;20043;-78
2021/04/21 01:16:54;;;;;;;22.88;14.30;;;3.80;99.90;;;;;;4754950;30;20062;-78
2021/04/21 01:19:49;;;;;;;21.80;13.88;;;3.80;99.90;;;;;;4768366;30;20069;-77
2021/04/21 01:22:40;;;;;;;22.50;14.35;;;3.80;99.90;;;;;;4754561;30;20055;-78
2021/04/21 01:25:39;;;;;;;21.20;13.80;;;3.80;99.90;;;;;;4750418;29;20052;-77
2021/04/21 01:28:19;;;;;;;22.05;13.40;;;3.70;99.90;;;;;;4753779;30;20070;-77
2021/04/21 01:30:52;;;;;;;21.30;14.35;;;3.70;99.90;;;;;;4754099;30;20047;-78
2021/04/21 01:33:26;;;;;;;23.98;14.40;;;3.70;99.90;;;;;;4768331;30;20350;-78
2021/04/21 01:36:04;;;;;;;21.08;13.18;;;3.70;99.90;;;;;;4754223;30;20065;-78
2021/04/21 01:38:38;;;;;;;22.25;13.88;;;3.60;99.90;;;;;;4783742;30;20043;-78
2021/04/21 01:41:17;;;;;;;25.23;15.85;;;3.60;99.90;;;;;;4768882;30;20500;-77
2021/04/21 01:43:57;;;;;;;24.48;13.82;;;3.60;99.90;;;;;;4754318;30;20538;-78
2021/04/21 01:46:27;;;;;;;21.30;12.63;;;3.50;99.90;;;;;;4768482;30;20428;-78
2021/04/21 01:49:26;;;;;;;19.75;12.88;;;3.50;99.90;;;;;;4768168;30;20538;-78
2021/04/21 01:52:06;;;;;;;22.95;14.63;;;3.50;99.90;;;;;;4768467;30;20048;-78
2021/04/21 01:54:40;;;;;;;23.80;15.15;;;3.40;99.90;;;;;;4768582;30;20070;-77
2021/04/21 01:57:55;;;;;;;27.95;15.63;;;3.40;99.90;;;;;;4768725;30;20041;-78
2021/04/21 02:00:40;;;;;;;23.25;14.85;;;3.40;99.90;;;;;;4709623;30;20065;-77
2021/04/21 02:03:21;;;;;;;21.75;14.68;;;3.40;99.90;;;;;;4757558;30;20051;-77
2021/04/21 02:06:15;;;;;;;24.00;14.90;;;3.40;99.90;;;;;;4788021;30;20058;-77
2021/04/21 02:09:06;;;;;;;23.50;15.25;;;3.30;99.90;;;;;;4756937;30;20070;-77
2021/04/21 02:11:35;;;;;;;22.40;14.07;;;3.30;99.90;;;;;;4771778;30;20051;-78
2021/04/21 02:14:29;;;;;;;24.30;14.23;;;3.40;99.90;;;;;;4771698;30;20043;-78
2021/04/21 02:17:03;;;;;;;22.30;13.68;;;3.30;99.90;;;;;;4757647;30;20058;-78
2021/04/21 02:19:44;;;;;;;23.92;14.32;;;3.30;99.90;;;;;;4757387;30;20475;-77
2021/04/21 02:22:27;;;;;;;24.33;14.40;;;3.20;99.90;;;;;;4757644;30;20051;-77
2021/04/21 02:25:11;;;;;;;22.92;15.15;;;3.20;99.90;;;;;;4757552;30;20051;-77
2021/04/21 02:28:08;;;;;;;24.05;15.13;;;3.20;99.90;;;;;;4787992;30;20062;-78
2021/04/21 02:31:20;;;;;;;27.23;15.38;;;3.10;99.90;;;;;;4772120;30;20051;-78
2021/04/21 02:34:17;;;;;;;24.48;15.02;;;3.10;99.90;;;;;;4772603;29;20043;-78
2021/04/21 02:37:07;;;;;;;23.48;13.27;;;3.10;99.90;;;;;;4757999;30;20431;-77
2021/04/21 02:40:08;;;;;;;19.30;13.98;;;3.10;99.90;;;;;;4771268;30;20059;-78
2021/04/21 02:42:57;;;;;;;25.80;14.57;;;3.00;99.90;;;;;;4753823;30;20078;-78
2021/04/21 02:46:02;;;;;;;22.40;14.82;;;3.00;99.90;;;;;;4770909;30;20066;-78
2021/04/21 02:48:40;;;;;;;27.05;14.65;;;2.90;99.90;;;;;;4755706;30;20150;-78
2021/04/21 02:51:35;;;;;;;25.10;14.88;;;2.90;99.90;;;;;;4772083;30;20055;-77
2021/04/21 02:54:20;;;;;;;24.35;13.88;;;2.80;99.90;;;;;;4756820;30;20412;-77
2021/04/21 02:57:06;;;;;;;21.48;13.50;;;2.80;99.90;;;;;;4756759;30;20135;-78
2021/04/21 03:00:02;;;;;;;23.35;15.07;;;2.80;99.90;;;;;;4756367;30;20047;-78
2021/04/21 03:02:39;;;;;;;22.98;14.85;;;2.80;99.90;;;;;;4756633;30;20058;-78
2021/04/21 03:05:31;;;;;;;22.42;15.40;;;2.80;99.90;;;;;;4771727;29;20152;-78
2021/04/21 03:08:21;;;;;;;25.27;15.18;;;2.80;99.90;;;;;;4756195;30;20057;-78
2021/04/21 03:10:59;;;;;;;25.27;14.82;;;2.70;99.90;;;;;;4771556;30;20070;-77
2021/04/21 03:13:29;;;;;;;24.60;13.95;;;2.60;99.90;;;;;;4770422;30;20496;-77
2021/04/21 03:16:04;;;;;;;24.25;15.57;;;2.60;99.90;;;;;;4770630;30;20057;-77
2021/04/21 03:18:40;;;;;;;26.65;16.25;;;2.60;99.90;;;;;;4756051;30;20043;-77
2021/04/21 03:21:23;;;;;;;26.70;14.65;;;2.70;99.90;;;;;;4770797;30;20047;-77
2021/04/21 03:24:08;;;;;;;23.52;14.35;;;2.70;99.90;;;;;;4756283;30;20047;-77
2021/04/21 03:26:42;;;;;;;28.13;15.35;;;2.70;99.90;;;;;;4756404;30;20528;-77
2021/04/21 03:29:13;;;;;;;23.50;15.45;;;2.70;99.90;;;;;;4755104;30;20051;-77
2021/04/21 03:31:47;;;;;;;23.17;14.38;;;2.60;99.90;;;;;;4770256;30;20043;-77
2021/04/21 03:34:19;;;;;;;;;;;2.60;99.90;;;;;;4756294;30;20496;-77
2021/04/21 03:36:46;;;;;;;25.13;14.23;;;2.60;99.90;;;;;;4786386;29;19930;-78
2021/04/21 03:39:17;;;;;;;23.83;14.35;;;2.60;99.90;;;;;;4770751;30;20054;-78
2021/04/21 03:41:49;;;;;;;23.20;14.43;;;2.50;99.90;;;;;;4756075;30;20248;-78
2021/04/21 03:44:21;;;;;;;25.27;14.25;;;2.50;99.90;;;;;;4755888;30;20051;-78
2021/04/21 03:46:52;;;;;;;28.23;16.05;;;2.50;99.90;;;;;;4755686;30;20066;-78
2021/04/21 03:49:24;;;;;;;24.63;15.23;;;2.50;99.90;;;;;;4749218;30;20508;-79
2021/04/21 03:51:57;;;;;;;26.02;15.52;;;2.50;99.90;;;;;;4770566;30;20253;-78
2021/04/21 03:54:30;;;;;;;25.23;15.80;;;2.50;99.90;;;;;;4769671;30;20058;-78
2021/04/21 03:57:03;;;;;;;24.27;13.90;;;2.50;99.90;;;;;;4770251;30;20052;-78
2021/04/21 03:59:32;;;;;;;27.05;14.93;;;2.40;99.90;;;;;;4768760;30;20051;-77
2021/04/21 04:02:06;;;;;;;24.48;14.95;;;2.50;99.90;;;;;;4755192;30;20047;-77
2021/04/21 04:04:40;;;;;;;27.92;16.65;;;2.50;99.90;;;;;;4769952;30;20501;-78
2021/04/21 04:07:14;;;;;;;25.85;15.73;;;2.50;99.90;;;;;;4769273;30;20057;-78
2021/04/21 04:09:47;;;;;;;25.35;15.20;;;2.40;99.90;;;;;;4754116;30;20404;-77
2021/04/21 04:12:20;;;;;;;22.98;13.88;;;2.40;99.90;;;;;;4769810;30;20047;-78
2021/04/21 04:14:47;;;;;;;23.25;14.18;;;2.40;99.90;;;;;;4754251;30;20055;-78
2021/04/21 04:17:20;;;;;;;23.60;14.75;;;2.40;99.90;;;;;;4754427;30;20507;-78
2021/04/21 04:19:47;;;;;;;25.85;16.45;;;2.40;99.90;;;;;;4768858;30;20139;-78
2021/04/21 04:22:20;;;;;;;26.95;16.05;;;2.40;99.90;;;;;;4768774;30;20051;-78
2021/04/21 04:24:55;;;;;;;24.48;15.57;;;2.30;99.90;;;;;;4768636;30;20063;-78
2021/04/21 04:27:29;;;;;;;23.17;14.82;;;2.30;99.90;;;;;;4755025;30;20047;-78
2021/04/21 04:30:00;;;;;;;25.95;14.75;;;2.30;99.90;;;;;;4768506;30;20065;-78
2021/04/21 04:32:37;;;;;;;23.55;15.20;;;2.30;99.90;;;;;;4769079;30;20059;-78
2021/04/21 04:35:10;;;;;;;23.50;14.50;;;2.30;99.90;;;;;;4770174;30;20044;-77
2021/04/21 04:37:43;;;;;;;27.52;16.38;;;2.30;99.90;;;;;;4769094;30;20057;-78
2021/04/21 04:40:15;;;;;;;23.42;14.65;;;2.20;99.90;;;;;;4755287;30;20062;-78
2021/04/21 04:42:48;;;;;;;20.85;13.43;;;2.20;99.90;;;;;;4767564;30;20705;-78
2021/04/21 04:45:15;;;;;;;21.00;13.25;;;2.20;99.90;;;;;;4764433;30;20587;-77
2021/04/21 04:47:49;;;;;;;24.95;14.38;;;2.20;99.90;;;;;;4750083;30;20049;-78
2021/04/21 04:50:22;;;;;;;23.35;13.50;;;2.20;99.90;;;;;;4736830;30;20055;-77
2021/04/21 04:52:56;;;;;;;21.33;13.60;;;2.20;99.90;;;;;;4736752;30;20143;-78
2021/04/21 04:55:28;;;;;;;;;;;2.20;99.90;;;;;;4737174;30;20508;-78
2021/04/21 04:58:02;;;;;;;21.70;13.30;;;2.30;99.90;;;;;;4736146;30;19972;-77
2021/04/21 05:00:35;;;;;;;23.13;13.13;;;2.30;99.90;;;;;;4736897;30;20708;-78
2021/04/21 05:03:17;;;;;;;22.05;14.98;;;2.30;99.90;;;;;;4751447;30;20052;-77
2021/04/21 05:05:54;;;;;;;22.73;15.00;;;2.30;99.90;;;;;;4736673;30;20058;-77
2021/04/21 05:08:36;;;;;;;28.88;16.08;;;2.30;99.90;;;;;;4735788;30;20142;-78
2021/04/21 05:11:11;;;;;;;28.52;15.25;;;2.30;99.90;;;;;;4751407;30;20051;-78
2021/04/21 05:13:49;;;;;;;23.48;14.57;;;2.30;99.90;;;;;;4745898;30;20143;-78
2021/04/21 05:16:24;;;;;;;27.58;15.60;;;2.40;99.90;;;;;;4737296;30;20044;-78
2021/04/21 05:18:58;;;;;;;30.15;17.20;;;2.50;99.90;;;;;;4716891;30;20048;-78
2021/04/21 05:21:32;;;;;;;26.75;16.05;;;2.60;99.90;;;;;;4719329;30;20087;-78
2021/04/21 05:24:21;;;;;;;24.38;15.23;;;2.60;99.90;;;;;;4733678;30;20536;-79
2021/04/21 05:27:01;;;;;;;27.90;15.70;;;2.70;99.90;;;;;;4737776;30;20090;-79
2021/04/21 05:29:57;;;;;;;27.17;15.38;;;2.70;99.90;;;;;;4736119;30;20091;-81
2021/04/21 05:32:56;;;;;;;26.88;15.23;;;2.70;99.90;;;;;;4736406;30;20124;-80
2021/04/21 05:36:01;;;;;;;30.77;17.67;;;2.70;99.90;;;;;;4738374;30;20052;-79
2021/04/21 05:39:21;;;;;;;37.75;21.40;;;2.80;99.90;;;;;;4754050;30;20135;-79
2021/04/21 05:42:28;;;;;;;26.70;16.17;;;2.80;99.90;;;;;;4755590;30;20064;-79
2021/04/21 05:45:24;;;;;;;25.58;17.48;;;2.80;99.90;;;;;;4710672;30;20150;-79
2021/04/21 05:48:32;;;;;;;30.50;18.42;;;2.80;99.90;;;;;;4750515;30;20236;-79
2021/04/21 05:51:39;;;;;;;24.88;16.80;;;2.70;99.90;;;;;;4740379;30;20596;-79
2021/04/21 05:54:35;;;;;;;26.38;16.45;;;2.80;99.90;;;;;;4740559;30;20463;-79
2021/04/21 05:57:13;;;;;;;25.02;15.30;;;2.80;99.90;;;;;;4754506;30;20428;-79
2021/04/21 06:00:00;;;;;;;27.15;15.98;;;2.90;99.90;;;;;;4770355;30;20475;-78
2021/04/21 06:02:34;;;;;;;32.65;21.27;;;2.90;99.90;;;;;;4754188;30;20099;-78
2021/04/21 06:05:10;;;;;;;33.70;19.73;;;3.00;99.90;;;;;;4738975;30;20101;-78
2021/04/21 06:07:42;;;;;;;32.53;19.83;;;3.00;99.90;;;;;;4741077;30;20144;-79
2021/04/21 06:10:22;;;;;;;33.05;20.75;;;3.00;99.90;;;;;;4750690;30;20530;-79
2021/04/21 06:12:54;;;;;;;29.63;20.58;;;2.90;99.90;;;;;;4753868;30;20609;-79
2021/04/21 06:15:35;;;;;;;28.20;17.55;;;3.00;99.90;;;;;;4754670;30;20504;-78
2021/04/21 06:18:08;;;;;;;28.10;17.35;;;3.10;99.90;;;;;;4751617;30;20152;-79
2021/04/21 06:20:42;;;;;;;26.15;16.13;;;3.20;99.90;;;;;;4728772;30;20048;-79
2021/04/21 06:23:20;;;;;;;27.40;16.50;;;3.30;99.90;;;;;;4739013;30;20155;-79
2021/04/21 06:26:01;;;;;;;29.92;17.88;;;3.40;99.90;;;;;;4739672;30;20056;-78
2021/04/21 06:28:32;;;;;;;27.73;17.40;;;3.50;99.90;;;;;;4749170;30;20473;-78
2021/04/21 06:31:10;;;;;;;29.00;17.73;;;3.60;99.90;;;;;;4751726;30;20556;-79
2021/04/21 06:33:43;;;;;;;27.42;17.55;;;3.70;99.90;;;;;;4752395;30;20040;-79
2021/04/21 06:36:15;;;;;;;29.60;17.67;;;3.80;99.90;;;;;;4738695;30;20390;-78
2021/04/21 06:38:54;;;;;;;27.20;17.58;;;3.90;99.90;;;;;;4735635;30;20044;-79
2021/04/21 06:41:26;;;;;;;27.60;17.13;;;4.00;99.90;;;;;;4750930;30;20417;-78
2021/04/21 06:43:57;;;;;;;32.38;19.63;;;4.10;99.90;;;;;;4749586;30;20547;-78
2021/04/21 06:46:29;;;;;;;37.03;27.58;;;4.20;99.90;;;;;;4749705;30;20401;-79
2021/04/21 06:48:57;;;;;;;47.92;31.77;;;4.40;99.90;;;;;;4750685;30;20056;-79
2021/04/21 06:51:27;;;;;;;39.97;26.35;;;4.50;99.90;;;;;;4749832;30;20052;-78
2021/04/21 06:54:00;;;;;;;34.60;23.35;;;4.60;99.90;;;;;;4749644;30;20071;-78
2021/04/21 06:56:33;;;;;;;34.65;22.48;;;4.70;99.90;;;;;;4735257;30;20078;-78
2021/04/21 06:59:04;;;;;;;35.92;22.52;;;4.90;99.90;;;;;;4749808;30;20076;-79
2021/04/21 07:01:36;;;;;;;32.45;21.55;;;5.00;99.90;;;;;;4750470;30;20072;-78
2021/04/21 07:04:10;;;;;;;33.65;20.48;;;5.10;99.90;;;;;;4749370;30;20048;-78
2021/04/21 07:06:43;;;;;;;28.58;19.92;;;5.20;99.90;;;;;;4749867;30;20141;-78
2021/04/21 07:09:16;;;;;;;35.40;22.73;;;5.30;99.90;;;;;;4734476;30;20143;-79
2021/04/21 07:12:01;;;;;;;33.20;22.08;;;5.40;99.90;;;;;;4735261;30;20601;-79
2021/04/21 07:14:34;;;;;;;37.20;22.35;;;5.60;99.90;;;;;;4750139;30;20369;-79
2021/04/21 07:17:05;;;;;;;37.03;24.30;;;5.70;99.90;;;;;;4751570;30;20046;-79
2021/04/21 07:19:37;;;;;;;37.10;23.88;;;5.90;99.90;;;;;;4752312;30;20058;-79
2021/04/21 07:22:12;;;;;;;37.58;23.80;;;6.10;99.90;;;;;;4752459;30;20058;-79
2021/04/21 07:24:45;;;;;;;36.97;23.02;;;6.20;99.90;;;;;;4738602;30;20487;-79
2021/04/21 07:27:19;;;;;;;38.42;24.23;;;6.40;99.90;;;;;;4752868;30;20079;-79
2021/04/21 07:29:50;;;;;;;41.45;26.70;;;6.50;99.90;;;;;;4752096;30;20138;-78
2021/04/21 07:32:24;;;;;;;36.58;22.85;;;6.60;99.90;;;;;;4753413;30;20079;-79
2021/04/21 07:35:03;;;;;;;33.38;22.15;;;6.70;99.90;;;;;;4737908;30;20056;-79
2021/04/21 07:37:38;;;;;;;39.30;22.98;;;6.90;99.90;;;;;;4753215;30;20097;-79
2021/04/21 07:40:39;;;;;;;39.10;26.83;;;7.00;99.90;;;;;;4737942;30;20526;-79
2021/04/21 07:43:18;;;;;;;35.38;21.48;;;7.20;99.90;;;;;;4729584;30;20056;-78
2021/04/21 07:45:54;;;;;;;35.97;22.98;;;7.40;99.90;;;;;;4737389;30;20109;-79
2021/04/21 07:48:34;;;;;;;36.60;21.70;;;7.60;99.90;;;;;;4739130;30;20071;-79
2021/04/21 07:51:15;;;;;;;33.63;21.42;;;7.70;99.90;;;;;;4738409;30;20142;-79
2021/04/21 07:54:00;;;;;;;34.53;21.80;;;7.90;99.90;;;;;;4737328;30;20385;-79
2021/04/21 07:56:35;;;;;;;32.38;20.45;;;8.10;99.90;;;;;;4771293;30;20039;-80
2021/04/21 07:59:17;;;;;;;38.28;21.52;;;8.30;99.90;;;;;;4740074;30;20047;-80
2021/04/21 08:04:56;;;;;;;27.75;17.80;;;8.50;99.90;;;;;;5737433;24;20034;-80
2021/04/21 08:07:36;;;;;;;30.50;18.95;;;8.70;99.90;;;;;;4754690;30;20110;-80
2021/04/21 08:10:27;;;;;;;26.33;17.52;;;8.90;99.90;;;;;;4754811;30;20061;-80
2021/04/21 08:17:25;;;;;;;30.48;18.90;;;9.20;99.90;;;;;;4771338;30;20508;-81
2021/04/21 08:20:01;;;;;;;29.20;19.17;;;9.50;99.90;;;;;;4754724;30;20093;-80
2021/04/21 08:32:09;;;;;;;27.02;17.75;;;10.20;99.90;;;;;;4754560;30;20538;-81
2021/04/21 08:34:40;;;;;;;26.65;17.27;;;10.40;99.90;;;;;;4755562;30;20119;-81
2021/04/21 08:37:12;;;;;;;23.65;15.85;;;10.60;99.90;;;;;;4740814;30;20056;-81
2021/04/21 08:39:39;;;;;;;22.70;14.75;;;10.70;99.90;;;;;;4754942;30;20628;-81
2021/04/21 08:42:13;;;;;;;22.35;14.98;;;10.80;99.90;;;;;;4754816;30;20428;-81
2021/04/21 08:44:44;;;;;;;22.73;15.18;;;11.00;99.90;;;;;;4740884;30;20047;-81
2021/04/21 08:47:17;;;;;;;26.08;13.68;;;11.10;99.90;;;;;;4741057;30;20050;-81
2021/04/21 08:49:44;;;;;;;17.42;12.55;;;11.30;99.90;;;;;;4740268;30;20056;-82
2021/04/21 08:52:16;;;;;;;18.17;12.65;;;11.40;99.90;;;;;;4740423;30;20477;-81
2021/04/21 08:54:48;;;;;;;23.60;14.02;;;11.60;99.90;;;;;;4741417;30;20490;-81
2021/04/21 08:57:20;;;;;;;20.10;14.07;;;11.70;99.90;;;;;;4755229;30;20044;-80
2021/04/21 08:59:52;;;;;;;23.33;13.73;;;11.90;99.90;;;;;;4755853;30;20116;-81
2021/04/21 09:06:04;;;;;;;16.95;11.68;;;12.20;99.90;;;;;;4900880;24;20543;-81
2021/04/21 09:08:31;;;;;;;14.60;10.60;;;12.40;99.90;;;;;;4755030;30;20055;-80
2021/04/21 09:11:07;;;;;;;16.98;12.52;;;12.50;99.90;;;;;;4754796;30;20067;-80
2021/04/21 09:13:34;;;;;;;20.95;14.60;;;12.70;99.90;;;;;;4754955;30;20056;-81
2021/04/21 09:16:01;;;;;;;17.35;13.05;;;12.70;99.90;;;;;;4755500;30;20527;-81
2021/04/21 09:18:34;;;;;;;17.60;11.50;;;12.80;99.90;;;;;;4741923;30;20055;-81
2021/04/21 09:21:03;;;;;;;19.73;13.75;;;12.90;99.90;;;;;;4741253;30;20097;-81
2021/04/21 09:23:43;;;;;;;21.50;14.48;;;13.00;99.90;;;;;;4755997;30;20060;-81
2021/04/21 09:26:16;;;;;;;18.23;13.73;;;13.00;99.90;;;;;;4742085;30;20060;-81
2021/04/21 09:28:44;;;;;;;18.85;12.93;;;13.10;99.60;;;;;;4755795;30;20064;-81
2021/04/21 09:31:15;;;;;;;16.35;12.02;;;13.20;99.40;;;;;;4756073;30;20071;-81
2021/04/21 09:33:43;;;;;;;19.83;12.85;;;13.30;99.00;;;;;;4741476;30;20079;-80
2021/04/21 09:36:32;;;;;;;15.07;10.52;;;13.40;97.20;;;;;;4759479;30;20051;-81
2021/04/21 09:39:08;;;;;;;13.30;10.68;;;13.50;96.20;;;;;;4761368;30;20115;-81
2021/04/21 09:41:36;;;;;;;17.10;13.25;;;13.60;95.20;;;;;;4763795;30;20051;-81
2021/04/21 10:02:43;;;;;;;14.13;9.98;;;13.30;88.50;;;;;;5773738;24;20050;-82
2021/04/21 10:52:51;;;;;;;11.38;10.00;;;13.40;78.40;;;;;;4794717;30;20026;-82
2021/04/21 11:00:59;;;;;;;14.68;10.50;;;13.60;76.50;;;;;;4774963;30;20173;-82
2021/04/21 11:48:08;;;;;;;15.40;11.73;;;14.40;72.40;;;;;;4959209;24;20134;-83
2021/04/21 12:24:43;;;;;;;10.02;7.70;;;16.30;59.00;;;;;;5556332;24;20178;31
2021/04/21 13:27:38;;;;;;;15.60;10.52;;;15.30;75.10;;;;;;5266169;24;20086;-80
2021/04/21 13:43:54;;;;;;;9.27;6.20;;;17.20;61.00;;;;;;4813803;24;20059;-82
2021/04/21 13:46:24;;;;;;;7.85;6.50;;;17.60;57.10;;;;;;4750126;30;20123;-82
2021/04/21 13:48:51;;;;;;;9.43;7.75;;;17.70;53.10;;;;;;4761625;30;20052;-81
2021/04/21 13:55:39;;;;;;;7.55;6.43;;;17.90;55.90;;;;;;4758960;30;20056;-82
2021/04/21 14:00:17;;;;;;;12.27;7.30;;;18.10;55.10;;;;;;4729339;30;20453;-82
2021/04/21 14:09:35;;;;;;;11.82;8.70;;;18.20;52.30;;;;;;4779690;30;20400;-82
2021/04/21 14:15:24;;;;;;;10.32;7.97;;;18.60;52.00;;;;;;5135218;24;20537;-83
2021/04/21 14:17:51;;;;;;;12.35;8.80;;;18.80;51.10;;;;;;4749471;30;20156;-81
2021/04/21 14:20:18;;;;;;;11.85;8.27;;;18.80;50.20;;;;;;4749630;30;20055;-82
2021/04/21 14:22:46;;;;;;;9.32;7.72;;;19.00;50.00;;;;;;4770881;24;20048;-80
2021/04/21 14:25:20;;;;;;;13.63;10.38;;;19.10;49.40;;;;;;4772318;30;20133;-80
2021/04/21 14:27:51;;;;;;;;;;;19.40;50.00;;;;;;4772509;30;20150;-80
2021/04/21 14:30:23;;;;;;;13.45;8.43;;;19.60;50.90;;;;;;4786184;29;20017;-79
2021/04/21 14:32:54;;;;;;;11.90;9.18;;;19.70;49.40;;;;;;4771871;30;20054;-79
2021/04/21 14:35:26;;;;;;;9.65;8.60;;;19.60;48.90;;;;;;4786223;30;20055;-80
2021/04/21 14:37:57;;;;;;;10.82;8.00;;;19.60;50.80;;;;;;4785915;30;20389;-80
2021/04/21 14:40:29;;;;;;;12.52;8.63;;;19.90;49.80;;;;;;4770962;30;20077;-80
2021/04/21 14:43:00;;;;;;;22.90;10.40;;;20.10;49.00;;;;;;4785866;29;20138;-80
2021/04/21 14:45:32;;;;;;;12.18;9.18;;;20.30;49.00;;;;;;4771822;30;20047;-80
2021/04/21 14:48:03;;;;;;;10.00;8.38;;;20.30;48.00;;;;;;4771219;30;20051;-79
2021/04/21 14:50:35;;;;;;;11.13;8.93;;;20.40;46.50;;;;;;4786109;30;20496;-79
2021/04/21 14:53:06;;;;;;;9.77;8.75;;;20.50;45.90;;;;;;4777370;30;20146;-82
2021/04/21 14:55:33;;;;;;;8.73;7.30;;;20.80;45.60;;;;;;4779407;30;20119;-82
2021/04/21 14:58:00;;;;;;;8.77;7.60;;;21.10;44.70;;;;;;4793853;30;20071;-83
2021/04/21 15:00:27;;;;;;;8.75;7.57;;;21.40;43.40;;;;;;4793935;30;20108;-82
2021/04/21 15:09:16;;;;;;;11.43;9.27;;;21.80;42.90;;;;;;4762843;30;20047;-80
2021/04/21 15:15:03;;;;;;;;;;;20.50;44.20;;;;;;5160592;24;20109;-81
2021/04/21 15:17:30;;;;;;;10.75;9.43;;;19.90;46.00;;;;;;4764928;30;19976;-83
2021/04/21 15:27:10;;;;;;;12.90;9.68;;;19.60;47.80;;;;;;5520606;24;20066;-82
2021/04/21 15:29:36;;;;;;;11.60;9.15;;;19.30;48.20;;;;;;4745856;30;20055;-82
2021/04/21 15:38:01;;;;;;;14.20;10.60;;;18.20;54.20;;;;;;5280097;24;20064;-82
2021/04/21 15:40:43;;;;;;;14.63;11.27;;;18.00;55.20;;;;;;4773719;30;20044;-82
2021/04/21 16:08:33;;;;;;;12.05;10.73;;;18.90;53.90;;;;;;4905499;24;20090;-81
2021/04/21 16:11:06;;;;;;;18.02;11.45;;;18.90;54.30;;;;;;4773578;30;20503;-82
2021/04/21 16:16:47;;;;;;;13.93;10.70;;;18.90;54.80;;;;;;5188930;24;20138;-81
2021/04/21 16:19:14;;;;;;;12.35;10.07;;;19.40;53.70;;;;;;4741639;30;20058;-82
2021/04/21 16:21:46;;;;;;;11.52;9.15;;;19.80;52.30;;;;;;4738934;30;20056;-81
2021/04/21 16:24:13;;;;;;;15.70;10.52;;;20.10;51.10;;;;;;4912233;24;20056;-79
2021/04/21 18:24:32;;;;;;;11.07;7.05;;;12.60;99.90;;;;;;4730699;30;20075;-81
2021/04/21 18:26:58;;;;;;;10.95;6.35;;;12.50;99.90;;;;;;4729166;30;20052;-81
2021/04/21 18:33:31;;;;;;;10.80;6.32;;;12.20;99.90;;;;;;4744075;30;20396;-80
2021/04/21 18:36:00;;;;;;;14.13;7.20;;;12.10;99.90;;;;;;4738118;30;20080;-81
2021/04/21 18:38:26;;;;;;;10.95;6.55;;;11.90;99.90;;;;;;4736829;30;20120;-78
2021/04/21 18:40:58;;;;;;;10.13;6.63;;;11.80;99.90;;;;;;4723444;30;20151;-81
2021/04/21 18:43:25;;;;;;;10.57;6.70;;;11.70;99.90;;;;;;4720969;30;20065;-80
2021/04/21 18:45:56;;;;;;;7.80;6.05;;;11.70;99.90;;;;;;4736172;30;20052;-80
2021/04/21 18:48:28;;;;;;;9.63;7.03;;;11.60;99.90;;;;;;4736566;30;20045;-81
2021/04/21 18:50:55;;;;;;;8.43;6.63;;;11.40;99.90;;;;;;4736331;30;20060;-80
2021/04/21 18:53:27;;;;;;;14.03;9.30;;;11.20;99.90;;;;;;4730371;30;20064;-80
2021/04/21 18:55:58;;;;;;;18.30;12.15;;;11.10;99.90;;;;;;4723245;30;20053;-79
2021/04/21 18:58:53;;;;;;;26.58;15.95;;;11.00;99.90;;;;;;4724228;30;20048;-81
2021/04/21 19:05:45;;;;;;;18.42;12.23;;;10.90;99.90;;;;;;4740160;30;20039;-81
2021/04/21 19:08:13;;;;;;;14.60;9.18;;;10.80;99.90;;;;;;4739455;30;20060;-80
2021/04/21 19:10:41;;;;;;;10.18;7.80;;;10.70;99.90;;;;;;4723577;30;20079;-81
2021/04/21 20:49:55;;;;;;;9.27;7.82;;;8.60;99.90;;;;;;6275894;22;750620;-81
2021/04/21 20:52:22;;;;;;;9.57;7.35;;;8.50;99.90;;;;;;6253246;23;20024;-80
2021/04/21 20:54:50;;;;;;;10.55;7.47;;;8.40;99.90;;;;;;6230561;23;20019;-81
2021/04/21 20:57:22;;;;;;;11.50;7.35;;;8.40;99.90;;;;;;6230701;23;20031;-81
2021/04/21 20:59:49;;;;;;;9.90;6.90;;;8.40;99.90;;;;;;6254865;23;20018;-80
2021/04/21 21:02:16;;;;;;;11.13;7.38;;;8.40;99.90;;;;;;6228752;23;20023;-80
2021/04/21 21:04:43;;;;;;;10.25;7.85;;;8.40;99.90;;;;;;6253301;23;20024;-80
2021/04/21 21:07:15;;;;;;;12.65;7.35;;;8.40;99.90;;;;;;6258173;22;20022;-80
2021/04/21 21:09:42;;;;;;;11.43;8.32;;;8.40;99.90;;;;;;6256512;23;20026;-80
2021/04/21 21:12:09;;;;;;;12.77;7.78;;;8.40;99.90;;;;;;6232053;22;20019;-80
2021/04/21 21:14:40;;;;;;;9.43;7.50;;;8.40;99.90;;;;;;6232724;23;20008;-81
2021/04/21 21:17:07;;;;;;;9.68;7.35;;;8.30;99.90;;;;;;6231173;23;20020;-80
2021/04/21 21:19:36;;;;;;;9.18;6.95;;;8.20;99.90;;;;;;6255580;23;20012;-80
2021/04/21 21:22:08;;;;;;;12.02;7.88;;;8.10;99.90;;;;;;6230961;22;20040;-81
2021/04/21 21:24:35;;;;;;;15.07;10.63;;;8.00;99.90;;;;;;6257206;23;20027;-80
2021/04/21 21:27:03;;;;;;;15.25;10.43;;;7.90;99.90;;;;;;6251058;23;20544;-80
2021/04/21 21:29:29;;;;;;;13.15;10.40;;;7.80;99.90;;;;;;6249127;23;20098;-80
2021/04/21 21:31:57;;;;;;;13.45;10.70;;;7.60;99.90;;;;;;6223337;22;20031;-80
2021/04/21 21:34:23;;;;;;;15.52;10.68;;;7.40;99.90;;;;;;6247968;23;20020;-81
2021/04/21 21:36:50;;;;;;;19.50;11.27;;;7.40;99.90;;;;;;6222692;23;20016;-80
2021/04/21 21:39:17;;;;;;;14.68;10.55;;;7.50;99.90;;;;;;6247397;23;20087;-80
2021/04/21 21:41:44;;;;;;;14.80;11.05;;;7.50;99.90;;;;;;6222731;23;20027;-80
2021/04/21 21:44:11;;;;;;;15.50;10.95;;;7.50;99.90;;;;;;6247053;22;20020;-80
2021/04/21 21:46:43;;;;;;;19.27;10.68;;;7.50;99.90;;;;;;6223564;23;20026;-80
2021/04/21 21:49:15;;;;;;;14.50;11.13;;;7.50;99.90;;;;;;6247281;23;20545;-79
2021/04/21 21:51:46;;;;;;;14.18;9.98;;;7.50;99.90;;;;;;6247627;22;20012;-80
2021/04/21 21:54:13;;;;;;;13.95;10.07;;;7.60;99.90;;;;;;6222454;23;20022;-80
2021/04/21 21:56:45;;;;;;;15.82;10.25;;;7.60;99.90;;;;;;6223292;23;20016;-79
2021/04/21 21:59:17;;;;;;;16.35;11.00;;;7.70;99.90;;;;;;6222157;23;20024;-81
2021/04/21 22:01:49;;;;;;;16.38;11.10;;;7.80;99.90;;;;;;6222604;22;20012;-81
2021/04/21 22:04:16;;;;;;;16.45;10.25;;;7.80;99.90;;;;;;6221512;23;20066;-80
2021/04/21 22:06:48;;;;;;;15.27;10.77;;;7.80;99.90;;;;;;6222850;23;20024;-80
2021/04/21 22:09:22;;;;;;;17.27;10.38;;;7.90;99.90;;;;;;6222215;23;20449;-81
2021/04/21 22:11:55;;;;;;;15.02;10.60;;;7.90;99.90;;;;;;6250190;22;20019;-81
2021/04/21 22:14:23;;;;;;;13.52;10.27;;;7.80;99.90;;;;;;6220976;23;20044;-80
2021/04/21 22:16:55;;;;;;;12.63;9.15;;;7.70;99.90;;;;;;6246794;23;20396;-80